Latest Coastal Weather Observations for Legendre Island

IDW60701

Issued at 11:03 am WST Saturday 21 October 2017 (issued every 10 minutes, with the page automatically refreshed every 10 minutes)

About coastal observations | Map of coastal stations | Coastal observations for WA | Marine services | Other Formats
Station Details ID: 004095 Name: LEGENDRE ISLAND Lat: -20.36 Lon: 116.84 Height: 29.0 m
Data from the previous 72 hours. | See also: Recent months at Legendre Island
Date/Time
WST
Temp
°C
Wind Pressure Rain since
9am
mm
Weather Cloud Vis
km
Sea
Height
m
Swell
Dir  Spd
kts
Gust
kts
hPa Trend Height
m
Period
s
Dir
21/11:00am 30.8 E 9 10 1011.3 - - - - - - - - -
21/10:30am 30.3 E 11 12 1011.7 - - - - - - - - -
21/10:00am 30.6 E 10 11 1011.6 - - - - - - - - -
21/09:30am 30.1 E 10 11 1011.7 - - - - - - - - -
21/09:00am 30.2 ESE 9 11 1011.7 - - - - - - - - -
21/08:30am 30.6 ESE 13 14 1011.6 - - - - - - - - -
21/08:00am 30.4 ESE 12 15 1011.4 - - - - - - - - -
21/07:30am 30.7 SE 11 14 1011.2 - - - - - - - - -
21/07:00am 29.0 SSE 10 13 1011.1 - - - - - - - - -
21/06:30am 26.6 SSW 10 11 1010.8 - - - - - - - - -
21/06:00am 25.6 SW 13 14 1010.5 - - - - - - - - -
21/05:30am 25.6 SW 12 14 1010.3 - - - - - - - - -
21/05:00am 25.3 SW 11 12 1010.1 - - - - - - - - -
21/04:30am 25.9 SSW 14 16 1009.7 - - - - - - - - -
21/04:00am 26.1 SW 14 15 1009.8 - - - - - - - - -
21/03:30am 25.7 SW 12 13 1009.8 - - - - - - - - -
21/03:00am 25.5 SW 12 13 1009.9 - - - - - - - - -
21/02:30am 25.5 WSW 11 13 1010.1 - - - - - - - - -
21/02:00am 25.7 SW 10 12 1010.2 - - - - - - - - -
21/01:30am 25.7 SW 11 13 1010.4 - - - - - - - - -
21/01:00am 25.5 WSW 11 12 1010.8 - - - - - - - - -
21/12:30am 25.2 WSW 10 11 1011.2 - - - - - - - - -
21/12:00am 25.1 WSW 8 10 1011.4 - - - - - - - - -
 
Date/Time
WST
Temp
°C
Wind Pressure Rain since
9am
mm
Weather Cloud Vis
km
Sea
Height
m
Swell
Dir  Spd
kts
Gust
kts
hPa Trend Height
m
Period
s
Dir
20/11:30pm 25.4 WSW 8 9 1011.6 - - - - - - - - -
20/11:00pm 26.2 SW 13 15 1011.8 - - - - - - - - -
20/10:30pm 26.1 SW 11 13 1012.2 - - - - - - - - -
20/10:00pm 26.3 SW 11 13 1012.3 - - - - - - - - -
20/09:30pm 26.5 SW 13 14 1012.2 - - - - - - - - -
20/09:00pm 26.9 SW 14 17 1011.9 - - - - - - - - -
20/08:30pm 27.2 SW 16 18 1011.5 - - - - - - - - -
20/08:00pm 27.0 SW 16 19 1011.3 - - - - - - - - -
20/07:30pm 27.0 SW 17 22 1010.8 - - - - - - - - -
20/07:00pm 26.9 SW 15 18 1010.6 - - - - - - - - -
20/06:30pm 26.9 SW 14 19 1010.4 - - - - - - - - -
20/06:00pm 27.5 WSW 14 17 1010.1 - - - - - - - - -
20/05:30pm 28.0 WSW 14 16 1010.1 - - - - - - - - -
20/05:00pm 29.8 WSW 13 16 1010.1 - - - - - - - - -
20/04:30pm 31.2 W 13 15 1010.0 - - - - - - - - -
20/04:00pm 32.8 W 12 15 1010.0 - - - - - - - - -
20/03:30pm 32.9 W 11 13 1010.4 - - - - - - - - -
20/03:00pm 34.0 W 10 11 1010.6 - - - - - - - - -
20/02:30pm 34.9 WNW 7 9 1011.0 - - - - - - - - -
20/02:00pm 33.6 NNW 5 7 1011.4 - - - - - - - - -
20/01:30pm 30.7 N 5 6 1011.8 - - - - - - - - -
20/01:00pm 31.7 NE 4 5 1012.3 - - - - - - - - -
20/12:30pm 30.9 ENE 4 5 1012.7 - - - - - - - - -
20/12:00pm 30.6 E 4 5 1013.2 - - - - - - - - -
20/11:30am 30.3 E 4 6 1013.6 - - - - - - - - -
20/11:00am 30.5 ESE 8 10 1013.8 - - - - - - - - -
20/10:30am 31.3 ESE 10 11 1013.8 - - - - - - - - -
20/10:00am 30.9 ESE 11 13 1013.9 - - - - - - - - -
20/09:30am 30.3 ESE 10 13 1014.2 - - - - - - - - -
20/09:00am 29.7 ESE 15 18 1014.2 - - - - - - - - -
20/08:30am 30.1 ESE 17 22 1014.1 - - - - - - - - -
20/08:00am 30.7 SE 15 19 1014.0 - - - - - - - - -
20/07:30am 30.2 SE 13 17 1013.7 - - - - - - - - -
20/07:00am 28.0 SSE 12 17 1013.4 - - - - - - - - -
20/06:30am 26.0 S 10 13 1013.1 - - - - - - - - -
20/06:00am 24.1 SSW 13 14 1012.3 - - - - - - - - -
20/05:30am 23.4 SSW 11 12 1012.2 - - - - - - - - -
20/05:00am 23.9 SSW 10 13 1012.1 - - - - - - - - -
20/04:30am 23.7 SSW 11 12 1011.9 - - - - - - - - -
20/04:00am 23.7 S 10 12 1012.0 - - - - - - - - -
20/03:30am 23.8 SSW 11 13 1012.0 - - - - - - - - -
20/03:00am 23.8 SSW 10 11 1011.8 - - - - - - - - -
20/02:30am 24.6 SW 13 15 1011.4 - - - - - - - - -
20/02:00am 24.3 SW 13 15 1011.5 - - - - - - - - -
20/01:30am 24.3 SW 14 16 1011.7 - - - - - - - - -
20/01:00am 24.0 SW 13 16 1011.8 - - - - - - - - -
20/12:30am 23.8 SW 13 15 1012.0 - - - - - - - - -
20/12:00am 23.8 SW 13 16 1012.3 - - - - - - - - -
 
Date/Time
WST
Temp
°C
Wind Pressure Rain since
9am
mm
Weather Cloud Vis
km
Sea
Height
m
Swell
Dir  Spd
kts
Gust
kts
hPa Trend Height
m
Period
s
Dir
19/11:30pm 23.8 SW 12 14 1012.4 - - - - - - - - -
19/11:00pm 23.9 WSW 11 13 1012.6 - - - - - - - - -
19/10:30pm 24.0 SW 12 13 1012.9 - - - - - - - - -
19/10:00pm 24.0 SW 11 12 1013.0 - - - - - - - - -
19/09:30pm 24.1 SW 10 12 1012.9 - - - - - - - - -
19/09:00pm 24.1 SW 9 11 1012.7 - - - - - - - - -
19/08:30pm 24.3 WSW 9 11 1012.4 - - - - - - - - -
19/08:00pm 24.9 W 9 11 1012.2 - - - - - - - - -
19/07:30pm 25.6 WNW 9 11 1011.9 - - - - - - - - -
19/07:00pm 25.9 WNW 12 14 1011.2 - - - - - - - - -
19/06:30pm 26.3 WNW 11 13 1010.9 - - - - - - - - -
19/06:00pm 27.2 WNW 10 13 1010.7 - - - - - - - - -
19/05:30pm 28.5 WNW 8 11 1010.4 - - - - - - - - -
19/05:00pm 29.5 WNW 8 10 1010.3 - - - - - - - - -
19/04:30pm 29.5 NW 8 10 1010.4 - - - - - - - - -
19/04:00pm 30.5 NW 8 10 1010.4 - - - - - - - - -
19/03:30pm 31.7 NNW 7 8 1010.4 - - - - - - - - -
19/03:00pm 30.1 N 5 6 1010.3 - - - - - - - - -
19/02:30pm 29.6 N 5 5 1010.4 - - - - - - - - -
19/02:00pm 30.8 NNE 4 5 1010.6 - - - - - - - - -
19/01:30pm 30.8 NE 5 6 1010.8 - - - - - - - - -
19/01:00pm 30.1 NE 7 8 1011.0 - - - - - - - - -
19/12:30pm 29.6 ENE 8 9 1011.3 - - - - - - - - -
19/12:00pm 30.0 E 9 9 1011.7 - - - - - - - - -
19/11:30am 30.0 E 11 12 1011.9 - - - - - - - - -
19/11:00am 30.0 ESE 12 13 1012.1 - - - - - - - - -
19/10:30am 29.7 ESE 14 16 1012.1 - - - - - - - - -
19/10:00am 29.6 ESE 14 16 1012.1 - - - - - - - - -
19/09:30am 29.9 ESE 15 18 1012.3 - - - - - - - - -
19/09:00am 28.7 ESE 15 19 1012.1 - - - - - - - - -
19/08:30am 28.5 ESE 16 19 1012.1 - - - - - - - - -
19/08:00am 28.6 ESE 17 20 1011.8 - - - - - - - - -
19/07:30am 27.8 ESE 17 20 1011.3 - - - - - - - - -
19/07:00am 26.9 ESE 15 18 1011.0 - - - - - - - - -
19/06:30am 26.0 ESE 15 19 1010.6 - - - - - - - - -
19/06:00am 23.7 ESE 11 15 1010.3 - - - - - - - - -
19/05:30am 22.9 ESE 9 9 1010.1 - - - - - - - - -
19/05:00am 22.8 ESE 7 8 1010.0 - - - - - - - - -
19/04:30am 22.4 SE 6 7 1009.7 - - - - - - - - -
19/04:00am 22.6 SSE 6 7 1009.5 - - - - - - - - -
19/03:30am 22.4 SSW 6 7 1009.2 - - - - - - - - -
19/03:00am 22.3 SW 6 7 1009.3 - - - - - - - - -
19/02:30am 22.3 WSW 6 8 1009.3 - - - - - - - - -
19/02:00am 22.7 WSW 10 11 1009.1 - - - - - - - - -
19/01:30am 22.8 SW 11 13 1009.2 - - - - - - - - -
19/01:00am 22.9 WSW 10 11 1009.6 - - - - - - - - -
19/12:30am 23.0 WSW 11 12 1009.8 - - - - - - - - -
19/12:00am 22.9 WSW 10 11 1010.2 - - - - - - - - -
 
Date/Time
WST
Temp
°C
Wind Pressure Rain since
9am
mm
Weather Cloud Vis
km
Sea
Height
m
Swell
Dir  Spd
kts
Gust
kts
hPa Trend Height
m
Period
s
Dir
18/11:30pm 23.3 WSW 12 13 1010.5 - - - - - - - - -
18/11:00pm 23.1 WSW 11 13 1010.9 - - - - - - - - -
18/10:30pm 23.1 WSW 10 12 1011.1 - - - - - - - - -
18/10:00pm 23.4 WSW 11 13 1011.2 - - - - - - - - -
18/09:30pm 23.4 WSW 14 17 1011.1 - - - - - - - - -
18/09:00pm 23.5 WSW 15 17 1011.2 - - - - - - - - -
18/08:30pm 23.6 WSW 16 19 1011.0 - - - - - - - - -
18/08:00pm 23.7 W 14 18 1010.9 - - - - - - - - -
18/07:30pm 23.9 W 14 17 1010.7 - - - - - - - - -
18/07:00pm 24.2 W 16 18 1010.3 - - - - - - - - -
18/06:30pm 24.4 W 15 18 1010.2 - - - - - - - - -
18/06:00pm 25.1 WSW 15 18 1009.9 - - - - - - - - -
18/05:30pm 26.1 W 14 17 1009.5 - - - - - - - - -
18/05:00pm 26.6 W 12 15 1009.2 - - - - - - - - -
18/04:30pm 26.5 W 13 15 1009.1 - - - - - - - - -
18/04:00pm 26.8 W 13 16 1009.2 - - - - - - - - -
18/03:30pm 27.3 W 13 15 1009.1 - - - - - - - - -
18/03:00pm 27.7 W 14 17 1009.4 - - - - - - - - -
18/02:30pm 27.5 W 16 19 1009.7 - - - - - - - - -
18/02:00pm 27.7 W 16 18 1010.0 - - - - - - - - -
18/01:30pm 28.9 W 16 19 1010.2 - - - - - - - - -
18/01:00pm 28.1 W 15 18 1010.6 - - - - - - - - -
18/12:30pm 28.7 W 13 16 1010.8 - - - - - - - - -
18/12:00pm 29.2 WSW 13 15 1011.1 - - - - - - - - -
18/11:30am 28.4 WSW 12 16 1011.5 - - - - - - - - -

Other Formats:

Comma delimited format used in spreadsheet applications
http://www.bom.gov.au/fwo/IDW60701/IDW60701.94307.axf

JavaScript Object Notation format (JSON) in row-major order
http://www.bom.gov.au/fwo/IDW60701/IDW60701.94307.json